createdAt,value
2016-05-22T00:00:34.016Z,0
2016-05-22T00:01:34.049Z,0
2016-05-22T00:02:34.084Z,0
2016-05-22T00:03:34.118Z,0
2016-05-22T00:04:34.151Z,0
2016-05-22T00:05:34.060Z,0
2016-05-22T00:06:34.235Z,0
2016-05-22T00:07:34.284Z,0
2016-05-22T00:08:34.319Z,0
2016-05-22T00:09:34.368Z,0
2016-05-22T00:10:34.386Z,0
2016-05-22T00:11:34.499Z,0
2016-05-22T00:12:35.048Z,0
2016-05-22T00:13:34.519Z,0
2016-05-22T00:14:34.773Z,0
2016-05-22T00:15:34.275Z,0
2016-05-22T00:16:34.622Z,0
2016-05-22T00:17:34.655Z,0
2016-05-22T00:18:34.689Z,0
2016-05-22T00:19:34.567Z,0
2016-05-22T00:20:34.616Z,0
2016-05-22T00:21:34.650Z,0
2016-05-22T00:22:34.841Z,0
2016-05-22T00:23:34.733Z,0
2016-05-22T00:24:34.925Z,0
2016-05-22T00:25:34.974Z,0
2016-05-22T00:26:34.991Z,0
2016-05-22T00:27:34.917Z,0
2016-05-22T00:28:35.060Z,0
2016-05-22T00:29:35.110Z,0
2016-05-22T00:30:35.143Z,0
2016-05-22T00:31:35.177Z,0
2016-05-22T00:32:35.227Z,0
2016-05-22T00:33:35.260Z,0
2016-05-22T00:34:35.295Z,0
2016-05-22T00:35:35.173Z,0
2016-05-22T00:36:35.379Z,0
2016-05-22T00:37:35.412Z,0
2016-05-22T00:38:35.446Z,0
2016-05-22T00:39:35.480Z,0
2016-05-22T00:40:35.357Z,0
2016-05-22T00:41:35.564Z,0
2016-05-22T00:42:36.067Z,0
2016-05-22T00:43:35.631Z,0
2016-05-22T00:44:35.666Z,0
2016-05-22T00:45:35.715Z,0
2016-05-22T00:46:35.748Z,0
2016-05-22T00:47:35.784Z,0
2016-05-22T00:48:35.661Z,0
2016-05-22T00:49:35.694Z,0
2016-05-22T00:50:35.884Z,0
2016-05-22T00:51:35.919Z,0
2016-05-22T00:52:35.969Z,0
2016-05-22T00:53:36.002Z,0
2016-05-22T00:54:35.895Z,0
2016-05-22T00:55:36.070Z,0
2016-05-22T00:56:36.104Z,0
2016-05-22T00:57:36.216Z,0
2016-05-22T00:58:36.203Z,0
2016-05-22T00:59:36.238Z,0
2016-05-22T01:00:36.271Z,0
2016-05-22T01:01:36.289Z,0
2016-05-22T01:02:36.338Z,0
2016-05-22T01:03:36.373Z,0
2016-05-22T01:04:36.407Z,0
2016-05-22T01:05:36.440Z,0
2016-05-22T01:06:36.490Z,0
2016-05-22T01:07:36.524Z,0
2016-05-22T01:08:36.402Z,0
2016-05-22T01:09:36.592Z,0
2016-05-22T01:10:36.485Z,0
2016-05-22T01:11:36.676Z,0
2016-05-22T01:12:36.818Z,0
2016-05-22T01:13:36.743Z,0
2016-05-22T01:14:36.621Z,0
2016-05-22T01:15:36.655Z,0
2016-05-22T01:16:36.862Z,0
2016-05-22T01:17:36.879Z,0
2016-05-22T01:18:36.944Z,0
2016-05-22T01:19:36.962Z,0
2016-05-22T01:20:37.012Z,0
2016-05-22T01:21:37.047Z,0
2016-05-22T01:22:36.925Z,0
2016-05-22T01:23:36.817Z,0
2016-05-22T01:24:37.164Z,0
2016-05-22T01:25:37.197Z,0
2016-05-22T01:26:37.231Z,0
2016-05-22T01:27:37.609Z,0
2016-05-22T01:28:36.986Z,0
2016-05-22T01:29:37.333Z,0
2016-05-22T01:30:37.226Z,0
2016-05-22T01:31:37.401Z,0
2016-05-22T01:32:37.294Z,0
2016-05-22T01:33:37.500Z,0
2016-05-22T01:34:37.377Z,0
2016-05-22T01:35:37.552Z,0
2016-05-22T01:36:37.602Z,0
2016-05-22T01:37:37.480Z,0
2016-05-22T01:38:37.670Z,0
2016-05-22T01:39:37.704Z,0
2016-05-22T01:40:37.581Z,0
2016-05-22T01:41:37.804Z,0
2016-05-22T01:42:37.524Z,0
2016-05-22T01:43:37.871Z,0
2016-05-22T01:44:37.889Z,0
2016-05-22T01:45:38.032Z,0
2016-05-22T01:46:38.004Z,0
2016-05-22T01:47:38.007Z,0
2016-05-22T01:48:38.040Z,0
2016-05-22T01:49:38.075Z,0
2016-05-22T01:50:38.109Z,0
2016-05-22T01:51:38.173Z,0
2016-05-22T01:52:38.036Z,0
2016-05-22T01:53:38.225Z,0
2016-05-22T01:54:38.261Z,0
2016-05-22T01:55:38.325Z,0
2016-05-22T01:56:38.187Z,0
2016-05-22T01:57:38.783Z,0
2016-05-22T01:58:38.427Z,0
2016-05-22T01:59:38.461Z,0
2016-05-22T02:00:38.480Z,0
2016-05-22T02:01:38.529Z,0
2016-05-22T02:02:38.594Z,0
2016-05-22T02:03:38.596Z,0
2016-05-22T02:04:38.631Z,0
2016-05-22T02:05:38.665Z,0
2016-05-22T02:06:38.557Z,0
2016-05-22T02:07:38.749Z,0
2016-05-22T02:08:38.782Z,0
2016-05-22T02:09:38.816Z,0
2016-05-22T02:10:38.865Z,0
2016-05-22T02:11:38.884Z,0
2016-05-22T02:12:38.934Z,0
2016-05-22T02:13:38.983Z,0
2016-05-22T02:14:39.001Z,0
2016-05-22T02:15:39.035Z,0
2016-05-22T02:16:39.070Z,0
2016-05-22T02:17:38.947Z,0
2016-05-22T02:18:39.137Z,0
2016-05-22T02:19:39.187Z,0
2016-05-22T02:20:39.221Z,0
2016-05-22T02:21:39.254Z,0
2016-05-22T02:22:39.132Z,0
2016-05-22T02:23:39.322Z,0
2016-05-22T02:24:39.356Z,0
2016-05-22T02:25:39.406Z,0
2016-05-22T02:26:39.440Z,0
2016-05-22T02:27:39.317Z,0
2016-05-22T02:28:39.508Z,0
2016-05-22T02:29:39.542Z,0
2016-05-22T02:30:39.575Z,0
2016-05-22T02:31:39.610Z,0
2016-05-22T02:32:39.675Z,0
2016-05-22T02:33:39.694Z,0
2016-05-22T02:34:39.727Z,0
2016-05-22T02:35:39.761Z,0
2016-05-22T02:36:39.638Z,0
2016-05-22T02:37:39.672Z,0
2016-05-22T02:38:39.879Z,0
2016-05-22T02:39:39.772Z,0
2016-05-22T02:40:39.946Z,0
2016-05-22T02:41:39.980Z,0
2016-05-22T02:42:40.608Z,0
2016-05-22T02:43:40.063Z,0
2016-05-22T02:44:40.097Z,0
2016-05-22T02:45:39.819Z,0
2016-05-22T02:46:40.181Z,0
2016-05-22T02:47:40.199Z,0
2016-05-22T02:48:40.234Z,4
2016-05-22T02:49:40.126Z,4
2016-05-22T02:50:40.317Z,4
2016-05-22T02:51:40.195Z,0
2016-05-22T02:52:40.384Z,4
2016-05-22T02:53:40.419Z,4
2016-05-22T02:54:40.453Z,4
2016-05-22T02:55:40.345Z,4
2016-05-22T02:56:40.552Z,4
2016-05-22T02:57:40.570Z,8
2016-05-22T02:58:40.447Z,8
2016-05-22T02:59:40.497Z,8
2016-05-22T03:00:40.516Z,8
2016-05-22T03:01:40.706Z,8
2016-05-22T03:02:40.739Z,12
2016-05-22T03:03:40.632Z,12
2016-05-22T03:04:40.667Z,16
2016-05-22T03:05:40.716Z,16
2016-05-22T03:06:40.891Z,20
2016-05-22T03:07:40.941Z,20
2016-05-22T03:08:40.960Z,24
2016-05-22T03:09:40.837Z,28
2016-05-22T03:10:40.885Z,28
2016-05-22T03:11:40.920Z,32
2016-05-22T03:12:40.970Z,40
2016-05-22T03:13:40.988Z,44
2016-05-22T03:14:41.178Z,48
2016-05-22T03:15:41.056Z,48
2016-05-22T03:16:41.262Z,56
2016-05-22T03:17:41.123Z,64
2016-05-22T03:18:41.330Z,68
2016-05-22T03:19:41.207Z,72
2016-05-22T03:20:41.398Z,80
2016-05-22T03:21:41.447Z,84
2016-05-22T03:22:41.481Z,92
2016-05-22T03:23:41.515Z,100
2016-05-22T03:24:41.548Z,112
2016-05-22T03:25:41.583Z,120
2016-05-22T03:26:41.617Z,132
2016-05-22T03:27:41.666Z,144
2016-05-22T03:28:41.684Z,160
2016-05-22T03:29:41.750Z,180
2016-05-22T03:30:41.817Z,196
2016-05-22T03:31:41.882Z,212
2016-05-22T03:32:41.948Z,228
2016-05-22T03:33:42.013Z,248
2016-05-22T03:34:41.911Z,264
2016-05-22T03:35:41.972Z,284
2016-05-22T03:36:42.016Z,308
2016-05-22T03:37:42.203Z,336
2016-05-22T03:38:42.263Z,360
2016-05-22T03:39:42.149Z,380
2016-05-22T03:40:42.202Z,404
2016-05-22T03:41:42.381Z,428
2016-05-22T03:42:42.153Z,456
2016-05-22T03:43:42.317Z,492
2016-05-22T03:44:42.509Z,524
2016-05-22T03:45:42.546Z,568
2016-05-22T03:46:42.581Z,620
2016-05-22T03:47:42.616Z,656
2016-05-22T03:48:42.652Z,680
2016-05-22T03:49:42.717Z,700
2016-05-22T03:50:42.736Z,716
2016-05-22T03:51:42.771Z,732
2016-05-22T03:52:42.805Z,760
2016-05-22T03:53:42.542Z,804
2016-05-22T03:54:42.873Z,844
2016-05-22T03:55:42.908Z,888
2016-05-22T03:56:42.957Z,908
2016-05-22T03:57:43.585Z,924
2016-05-22T03:58:43.024Z,944
2016-05-22T03:59:43.058Z,968
2016-05-22T04:00:42.936Z,984
2016-05-22T04:01:43.127Z,992
2016-05-22T04:02:43.004Z,1008
2016-05-22T04:03:43.194Z,1028
2016-05-22T04:04:43.243Z,1056
2016-05-22T04:05:43.277Z,1068
2016-05-22T04:06:43.156Z,1068
2016-05-22T04:07:43.346Z,1068
2016-05-22T04:08:43.395Z,1068
2016-05-22T04:09:43.413Z,1068
2016-05-22T04:10:43.448Z,1064
2016-05-22T04:11:43.498Z,1056
2016-05-22T04:12:43.469Z,1064
2016-05-22T04:13:43.409Z,1076
2016-05-22T04:14:43.614Z,1096
2016-05-22T04:15:43.476Z,1136
2016-05-22T04:16:43.667Z,1176
2016-05-22T04:17:43.717Z,1216
2016-05-22T04:18:43.595Z,1260
2016-05-22T04:19:43.785Z,1308
2016-05-22T04:20:43.817Z,1344
2016-05-22T04:21:43.712Z,1412
2016-05-22T04:22:43.917Z,1424
2016-05-22T04:23:43.936Z,1400
2016-05-22T04:24:43.970Z,1412
2016-05-22T04:25:43.848Z,1432
2016-05-22T04:26:44.069Z,1464
2016-05-22T04:27:44.556Z,1512
2016-05-22T04:28:43.809Z,1592
2016-05-22T04:29:44.171Z,1692
2016-05-22T04:30:44.189Z,1752
2016-05-22T04:31:44.222Z,1796
2016-05-22T04:32:44.100Z,1828
2016-05-22T04:33:44.291Z,1852
2016-05-22T04:34:44.340Z,1912
2016-05-22T04:35:44.218Z,2052
2016-05-22T04:36:44.393Z,2220
2016-05-22T04:37:44.286Z,2380
2016-05-22T04:38:44.476Z,2520
2016-05-22T04:39:44.510Z,2628
2016-05-22T04:40:44.543Z,2664
2016-05-22T04:41:44.593Z,2680
2016-05-22T04:42:44.846Z,2740
2016-05-22T04:43:44.521Z,2816
2016-05-22T04:44:44.695Z,2924
2016-05-22T04:45:44.729Z,3084
2016-05-22T04:46:44.607Z,3260
2016-05-22T04:47:44.500Z,3452
2016-05-22T04:48:44.847Z,3748
2016-05-22T04:49:44.881Z,4032
2016-05-22T04:50:44.915Z,4108
2016-05-22T04:51:44.792Z,4420
2016-05-22T04:52:44.998Z,4660
2016-05-22T04:53:44.875Z,5028
2016-05-22T04:54:44.753Z,5136
2016-05-22T04:55:44.944Z,5160
2016-05-22T04:56:45.133Z,5520
2016-05-22T04:57:45.199Z,5032
2016-05-22T04:58:45.217Z,5164
2016-05-22T04:59:45.252Z,6008
2016-05-22T05:00:45.300Z,6444
2016-05-22T05:01:45.335Z,6160
2016-05-22T05:02:45.368Z,6360
2016-05-22T05:03:45.246Z,7340
2016-05-22T05:04:45.296Z,8320
2016-05-22T05:05:45.471Z,7928
2016-05-22T05:06:45.520Z,7772
2016-05-22T05:07:45.554Z,6668
2016-05-22T05:08:45.588Z,7348
2016-05-22T05:09:45.621Z,8384
2016-05-22T05:10:45.672Z,7796
2016-05-22T05:11:45.705Z,8036
2016-05-22T05:12:46.036Z,7824
2016-05-22T05:13:45.632Z,7964
2016-05-22T05:14:45.823Z,8512
2016-05-22T05:15:45.700Z,8592
2016-05-22T05:16:45.907Z,7524
2016-05-22T05:17:45.940Z,7224
2016-05-22T05:18:45.958Z,7936
2016-05-22T05:19:46.008Z,7856
2016-05-22T05:20:46.042Z,7320
2016-05-22T05:21:46.092Z,8088
2016-05-22T05:22:46.110Z,7852
2016-05-22T05:23:46.160Z,7912
2016-05-22T05:24:46.036Z,7344
2016-05-22T05:25:46.242Z,6508
2016-05-22T05:26:46.278Z,5676
2016-05-22T05:27:46.436Z,5452
2016-05-22T05:28:46.361Z,5548
2016-05-22T05:29:46.411Z,5648
2016-05-22T05:30:46.444Z,5772
2016-05-22T05:31:46.337Z,6032
2016-05-22T05:32:46.512Z,6284
2016-05-22T05:33:46.546Z,6468
2016-05-22T05:34:46.439Z,6852
2016-05-22T05:35:46.630Z,6984
2016-05-22T05:36:46.664Z,6880
2016-05-22T05:37:46.713Z,6812
2016-05-22T05:38:46.747Z,6692
2016-05-22T05:39:46.780Z,6748
2016-05-22T05:40:46.815Z,6344
2016-05-22T05:41:46.865Z,6344
2016-05-22T05:42:46.602Z,5964
2016-05-22T05:43:46.932Z,5556
2016-05-22T05:44:46.825Z,5720
2016-05-22T05:45:47.015Z,5660
2016-05-22T05:46:47.049Z,5280
2016-05-22T05:47:47.114Z,4732
2016-05-22T05:48:46.993Z,4556
2016-05-22T05:49:47.182Z,4552
2016-05-22T05:50:47.060Z,4640
2016-05-22T05:51:47.250Z,4772
2016-05-22T05:52:47.285Z,4932
2016-05-22T05:53:47.334Z,5148
2016-05-22T05:54:47.368Z,5224
2016-05-22T05:55:47.261Z,5420
2016-05-22T05:56:47.467Z,5812
2016-05-22T05:57:47.908Z,6276
2016-05-22T05:58:47.519Z,6100
2016-05-22T05:59:47.553Z,6096
2016-05-22T06:00:47.447Z,6252
2016-05-22T06:01:47.652Z,6336
2016-05-22T06:02:47.530Z,6064
2016-05-22T06:03:47.719Z,5824
2016-05-22T06:04:47.614Z,5700
2016-05-22T06:05:47.788Z,5688
2016-05-22T06:06:47.838Z,5872
2016-05-22T06:07:47.888Z,5696
2016-05-22T06:08:47.765Z,5368
2016-05-22T06:09:47.971Z,5288
2016-05-22T06:10:47.864Z,5504
2016-05-22T06:11:48.038Z,5708
2016-05-22T06:12:48.088Z,6568
2016-05-22T06:13:47.951Z,7020
2016-05-22T06:14:48.157Z,7156
2016-05-22T06:15:48.190Z,7124
2016-05-22T06:16:48.068Z,6996
2016-05-22T06:17:48.118Z,6932
2016-05-22T06:18:48.308Z,7032
2016-05-22T06:19:48.342Z,7512
2016-05-22T06:20:48.078Z,7568
2016-05-22T06:21:48.440Z,7468
2016-05-22T06:22:48.475Z,7156
2016-05-22T06:23:48.509Z,6648
2016-05-22T06:24:48.559Z,6480
2016-05-22T06:25:48.592Z,6380
2016-05-22T06:26:48.625Z,7060
2016-05-22T06:27:48.692Z,6696
2016-05-22T06:28:48.553Z,6812
2016-05-22T06:29:48.603Z,7348
2016-05-22T06:30:48.778Z,7632
2016-05-22T06:31:48.828Z,7720
2016-05-22T06:32:48.860Z,8464
2016-05-22T06:33:48.894Z,8076
2016-05-22T06:34:48.944Z,8268
2016-05-22T06:35:48.978Z,7680
2016-05-22T06:36:49.028Z,7880
2016-05-22T06:37:49.061Z,7804
2016-05-22T06:38:49.095Z,7312
2016-05-22T06:39:49.160Z,7152
2016-05-22T06:40:49.194Z,6984
2016-05-22T06:41:49.229Z,7136
2016-05-22T06:42:49.404Z,7152
2016-05-22T06:43:49.375Z,7200
2016-05-22T06:44:49.190Z,7520
2016-05-22T06:45:49.395Z,7636
2016-05-22T06:46:49.430Z,7716
2016-05-22T06:47:49.479Z,7764
2016-05-22T06:48:49.513Z,7924
2016-05-22T06:49:49.532Z,8212
2016-05-22T06:50:49.596Z,8428
2016-05-22T06:51:49.630Z,8312
2016-05-22T06:52:49.664Z,8340
2016-05-22T06:53:49.698Z,8016
2016-05-22T06:54:49.576Z,7696
2016-05-22T06:55:49.782Z,7520
2016-05-22T06:56:49.816Z,7488
2016-05-22T06:57:49.881Z,7308
2016-05-22T06:58:49.915Z,7264
2016-05-22T06:59:49.964Z,6880
2016-05-22T07:00:49.984Z,6764
2016-05-22T07:01:50.017Z,6400
2016-05-22T07:02:50.066Z,6816
2016-05-22T07:03:50.100Z,7180
2016-05-22T07:04:50.150Z,7272
2016-05-22T07:05:50.027Z,7528
2016-05-22T07:06:49.905Z,8104
2016-05-22T07:07:50.252Z,8960
2016-05-22T07:08:50.302Z,8588
2016-05-22T07:09:50.022Z,8852
2016-05-22T07:10:50.369Z,9548
2016-05-22T07:11:50.435Z,9208
2016-05-22T07:12:50.234Z,9176
2016-05-22T07:13:50.502Z,9332
2016-05-22T07:14:50.536Z,9400
2016-05-22T07:15:50.585Z,9648
2016-05-22T07:16:50.463Z,9668
2016-05-22T07:17:50.669Z,9568
2016-05-22T07:18:50.563Z,9436
2016-05-22T07:19:50.737Z,9328
2016-05-22T07:20:50.631Z,9336
2016-05-22T07:21:50.821Z,9208
2016-05-22T07:22:50.715Z,9200
2016-05-22T07:23:50.889Z,9364
2016-05-22T07:24:50.954Z,9468
2016-05-22T07:25:50.973Z,9784
2016-05-22T07:26:51.022Z,9928
2016-05-22T07:27:51.103Z,9888
2016-05-22T07:28:51.105Z,9920
2016-05-22T07:29:51.155Z,9896
2016-05-22T07:30:51.189Z,9968
2016-05-22T07:31:51.067Z,10096
2016-05-22T07:32:51.288Z,10192
2016-05-22T07:33:51.352Z,10348
2016-05-22T07:34:51.339Z,10496
2016-05-22T07:35:51.390Z,10520
2016-05-22T07:36:51.424Z,10808
2016-05-22T07:37:51.473Z,11148
2016-05-22T07:38:51.507Z,11380
2016-05-22T07:39:51.557Z,11576
2016-05-22T07:40:51.434Z,11668
2016-05-22T07:41:51.640Z,11752
2016-05-22T07:42:51.783Z,11716
2016-05-22T07:43:51.708Z,11940
2016-05-22T07:44:51.757Z,12408
2016-05-22T07:45:51.791Z,14080
2016-05-22T07:46:51.840Z,18624
2016-05-22T07:47:51.718Z,17920
2016-05-22T07:48:51.910Z,22656
2016-05-22T07:49:51.959Z,19712
2016-05-22T07:50:52.007Z,20352
2016-05-22T07:51:51.885Z,20768
2016-05-22T07:52:52.076Z,19072
2016-05-22T07:53:51.812Z,22240
2016-05-22T07:54:52.176Z,18432
2016-05-22T07:55:52.209Z,18912
2016-05-22T07:56:52.242Z,18880
2016-05-22T07:57:52.418Z,20192
2016-05-22T07:58:52.326Z,23424
2016-05-22T07:59:52.375Z,25056
2016-05-22T08:00:52.410Z,26112
2016-05-22T08:01:52.460Z,27680
2016-05-22T08:02:52.494Z,29600
2016-05-22T08:03:52.542Z,36512
2016-05-22T08:04:52.437Z,38880
2016-05-22T08:05:52.627Z,33952
2016-05-22T08:06:52.504Z,34080
2016-05-22T08:07:52.725Z,40192
2016-05-22T08:08:52.603Z,49024
2016-05-22T08:09:52.794Z,50080
2016-05-22T08:10:52.828Z,38496
2016-05-22T08:11:52.736Z,28864
2016-05-22T08:12:52.802Z,39264
2016-05-22T08:13:52.960Z,38464
2016-05-22T08:14:53.010Z,57216
2016-05-22T08:15:53.059Z,60384
2016-05-22T08:16:52.937Z,56128
2016-05-22T08:17:53.143Z,52160
2016-05-22T08:18:53.037Z,48704
2016-05-22T08:19:53.085Z,46368
2016-05-22T08:20:53.276Z,43840
2016-05-22T08:21:53.170Z,44352
2016-05-22T08:22:53.376Z,43680
2016-05-22T08:23:53.268Z,40608
2016-05-22T08:24:53.303Z,36384
2016-05-22T08:25:53.352Z,32512
2016-05-22T08:26:53.542Z,28672
2016-05-22T08:27:54.482Z,27104
2016-05-22T08:28:53.642Z,28544
2016-05-22T08:29:53.535Z,37408
2016-05-22T08:30:53.725Z,41920
2016-05-22T08:31:53.775Z,44192
2016-05-22T08:32:53.824Z,50048
2016-05-22T08:33:53.874Z,50048
2016-05-22T08:34:53.908Z,53792
2016-05-22T08:35:53.958Z,56608
2016-05-22T08:36:53.694Z,49184
2016-05-22T08:37:53.900Z,54656
2016-05-22T08:38:53.793Z,62944
2016-05-22T08:39:54.140Z,70592
2016-05-22T08:40:54.189Z,70880
2016-05-22T08:41:54.255Z,66848
2016-05-22T08:42:54.304Z,52640
2016-05-22T08:43:54.338Z,41632
2016-05-22T08:44:54.372Z,36096
2016-05-22T08:45:54.422Z,39488
2016-05-22T08:46:54.487Z,48032
2016-05-22T08:47:54.521Z,57248
2016-05-22T08:48:54.570Z,49152
2016-05-22T08:49:54.495Z,56768
2016-05-22T08:50:54.669Z,53280
2016-05-22T08:51:54.718Z,47872
2016-05-22T08:52:54.596Z,45632
2016-05-22T08:53:54.662Z,42976
2016-05-22T08:54:54.571Z,49312
2016-05-22T08:55:54.589Z,47904
2016-05-22T08:56:54.967Z,51552
2016-05-22T08:57:55.188Z,55520
2016-05-22T08:58:55.050Z,46368
2016-05-22T08:59:55.131Z,58784
2016-05-22T09:00:55.149Z,55936
2016-05-22T09:01:55.198Z,49344
2016-05-22T09:02:55.248Z,46784
2016-05-22T09:03:55.298Z,48544
2016-05-22T09:04:55.331Z,47424
2016-05-22T09:05:55.225Z,45440
2016-05-22T09:06:55.431Z,41376
2016-05-22T09:07:55.481Z,41632
2016-05-22T09:08:55.514Z,43200
2016-05-22T09:09:55.580Z,43776
2016-05-22T09:10:55.630Z,49952
2016-05-22T09:11:55.663Z,42752
2016-05-22T09:12:56.228Z,53280
2016-05-22T09:13:55.778Z,52608
2016-05-22T09:14:55.813Z,42496
2016-05-22T09:15:55.705Z,33632
2016-05-22T09:16:55.910Z,42464
2016-05-22T09:17:55.960Z,44160
2016-05-22T09:18:56.026Z,46528
2016-05-22T09:19:56.060Z,41888
2016-05-22T09:20:56.109Z,34624
2016-05-22T09:21:56.159Z,40032
2016-05-22T09:22:56.209Z,40672
2016-05-22T09:23:56.274Z,41536
2016-05-22T09:24:56.292Z,41216
2016-05-22T09:25:56.357Z,40384
2016-05-22T09:26:56.235Z,43040
2016-05-22T09:27:56.456Z,41568
2016-05-22T09:28:56.334Z,37984
2016-05-22T09:29:56.540Z,32224
2016-05-22T09:30:56.434Z,31360
2016-05-22T09:31:56.484Z,32352
2016-05-22T09:32:56.704Z,31744
2016-05-22T09:33:56.722Z,31200
2016-05-22T09:34:56.772Z,32544
2016-05-22T09:35:56.853Z,34272
2016-05-22T09:36:56.871Z,35360
2016-05-22T09:37:56.608Z,35200
2016-05-22T09:38:56.955Z,30400
2016-05-22T09:39:57.020Z,33152
2016-05-22T09:40:57.085Z,35840
2016-05-22T09:41:57.103Z,39456
2016-05-22T09:42:57.263Z,42976
2016-05-22T09:43:57.046Z,44832
2016-05-22T09:44:57.236Z,41632
2016-05-22T09:45:57.302Z,43008
2016-05-22T09:46:57.352Z,42656
2016-05-22T09:47:57.401Z,44960
2016-05-22T09:48:57.435Z,49984
2016-05-22T09:49:57.485Z,33664
2016-05-22T09:50:57.534Z,55328
2016-05-22T09:51:57.599Z,49184
2016-05-22T09:52:57.477Z,32320
2016-05-22T09:53:57.527Z,40640
2016-05-22T09:54:57.716Z,23616
2016-05-22T09:55:57.782Z,16736
2016-05-22T09:56:57.815Z,14344
2016-05-22T09:57:57.974Z,12936
2016-05-22T09:58:57.915Z,11736
2016-05-22T09:59:57.964Z,11324
2016-05-22T10:00:58.014Z,12112
2016-05-22T10:01:58.048Z,13440
2016-05-22T10:02:58.112Z,14540
2016-05-22T10:03:58.147Z,14112
2016-05-22T10:04:58.197Z,13360
2016-05-22T10:05:58.090Z,13472
2016-05-22T10:06:58.281Z,17248
2016-05-22T10:07:58.173Z,27424
2016-05-22T10:08:58.442Z,42656
2016-05-22T10:09:58.428Z,33728
2016-05-22T10:10:58.494Z,33920
2016-05-22T10:11:58.528Z,45408
2016-05-22T10:12:58.593Z,43520
2016-05-22T10:13:58.533Z,43648
2016-05-22T10:14:58.661Z,43680
2016-05-22T10:15:58.710Z,44096
2016-05-22T10:16:58.589Z,44960
2016-05-22T10:17:58.856Z,45312
2016-05-22T10:18:58.828Z,44096
2016-05-22T10:19:58.893Z,43712
2016-05-22T10:20:58.911Z,41376
2016-05-22T10:21:58.961Z,36544
2016-05-22T10:22:58.854Z,37760
2016-05-22T10:23:59.060Z,37952
2016-05-22T10:24:58.954Z,37056
2016-05-22T10:25:59.003Z,33472
2016-05-22T10:26:59.037Z,32736
2016-05-22T10:27:59.587Z,32192
2016-05-22T10:28:59.339Z,30528
2016-05-22T10:29:59.342Z,30848
2016-05-22T10:30:59.234Z,31328
2016-05-22T10:31:59.129Z,32416
2016-05-22T10:32:59.476Z,29248
2016-05-22T10:33:59.368Z,25792
2016-05-22T10:34:59.418Z,21920
2016-05-22T10:35:59.624Z,18624
2016-05-22T10:36:59.658Z,16928
2016-05-22T10:37:59.723Z,15092
2016-05-22T10:38:59.600Z,13828
2016-05-22T10:39:59.791Z,12852
2016-05-22T10:40:59.856Z,12880
2016-05-22T10:41:59.906Z,12844
2016-05-22T10:42:59.799Z,12796
2016-05-22T10:44:00.083Z,12664
2016-05-22T10:44:59.882Z,12704
2016-05-22T10:46:00.089Z,12604
2016-05-22T10:47:00.121Z,12476
2016-05-22T10:48:00.171Z,12632
2016-05-22T10:49:00.065Z,13400
2016-05-22T10:50:00.114Z,14108
2016-05-22T10:51:00.321Z,15776
2016-05-22T10:52:00.198Z,18368
2016-05-22T10:53:00.404Z,21632
2016-05-22T10:54:00.438Z,22816
2016-05-22T10:55:00.488Z,23904
2016-05-22T10:56:00.381Z,26720
2016-05-22T10:57:00.570Z,26432
2016-05-22T10:58:00.495Z,18944
2016-05-22T10:59:00.545Z,16416
2016-05-22T11:00:00.704Z,15584
2016-05-22T11:01:00.598Z,18720
2016-05-22T11:02:00.803Z,18656
2016-05-22T11:03:00.853Z,25344
2016-05-22T11:04:00.731Z,25888
2016-05-22T11:05:00.937Z,18816
2016-05-22T11:06:01.173Z,22016
2016-05-22T11:07:01.019Z,34560
2016-05-22T11:08:00.912Z,46784
2016-05-22T11:09:01.119Z,29152
2016-05-22T11:10:01.152Z,31808
2016-05-22T11:11:01.203Z,18016
2016-05-22T11:12:01.252Z,29472
2016-05-22T11:13:01.614Z,51744
2016-05-22T11:14:01.553Z,47520
2016-05-22T11:15:01.385Z,23808
2016-05-22T11:16:01.419Z,21184
2016-05-22T11:17:01.484Z,14992
2016-05-22T11:18:01.518Z,11380
2016-05-22T11:19:01.552Z,10660
2016-05-22T11:20:01.444Z,9856
2016-05-22T11:21:01.651Z,10088
2016-05-22T11:22:01.700Z,10176
2016-05-22T11:23:01.735Z,10012
2016-05-22T11:24:01.785Z,8704
2016-05-22T11:25:01.677Z,8252
2016-05-22T11:26:01.868Z,8496
2016-05-22T11:27:01.933Z,8392
2016-05-22T11:28:01.810Z,8992
2016-05-22T11:29:02.235Z,9452
2016-05-22T11:30:02.050Z,10596
2016-05-22T11:31:02.084Z,13996
2016-05-22T11:32:01.977Z,13908
2016-05-22T11:33:02.184Z,13648
2016-05-22T11:34:01.921Z,13828
2016-05-22T11:35:02.110Z,13620
2016-05-22T11:36:02.317Z,12688
2016-05-22T11:37:02.366Z,12868
2016-05-22T11:38:02.400Z,14284
2016-05-22T11:39:02.293Z,14696
2016-05-22T11:40:02.498Z,14908
2016-05-22T11:41:02.533Z,14548
2016-05-22T11:42:02.583Z,14748
2016-05-22T11:43:02.882Z,13996
2016-05-22T11:44:02.509Z,13508
2016-05-22T11:45:02.700Z,12840
2016-05-22T11:46:02.750Z,12420
2016-05-22T11:47:02.659Z,16288
2016-05-22T11:48:02.849Z,78400
2016-05-22T11:49:02.897Z,22752
2016-05-22T11:50:02.933Z,29216
2016-05-22T11:51:02.982Z,31808
2016-05-22T11:52:03.031Z,42048
2016-05-22T11:53:03.081Z,29600
2016-05-22T11:54:02.958Z,20064
2016-05-22T11:55:03.164Z,16192
2016-05-22T11:56:03.042Z,16544
2016-05-22T11:57:03.248Z,27712
2016-05-22T11:58:03.641Z,37696
2016-05-22T11:59:03.331Z,22272
2016-05-22T12:00:03.209Z,29216
2016-05-22T12:01:03.259Z,84896
2016-05-22T12:02:03.449Z,80576
2016-05-22T12:03:03.343Z,74304
2016-05-22T12:04:03.532Z,70176
2016-05-22T12:05:03.598Z,70432
2016-05-22T12:06:03.631Z,65184
2016-05-22T12:07:03.525Z,72544
2016-05-22T12:08:03.731Z,52256
2016-05-22T12:09:03.623Z,48576
2016-05-22T12:10:03.829Z,21344
2016-05-22T12:11:03.707Z,75840
2016-05-22T12:12:03.617Z,46272
2016-05-22T12:13:04.088Z,24096
2016-05-22T12:14:04.402Z,81056
2016-05-22T12:15:04.062Z,61408
2016-05-22T12:16:04.127Z,67168
2016-05-22T12:17:04.177Z,58048
2016-05-22T12:18:04.070Z,23680
2016-05-22T12:19:04.260Z,13080
2016-05-22T12:20:04.310Z,28544
2016-05-22T12:21:04.343Z,49376
2016-05-22T12:22:04.408Z,15024
2016-05-22T12:23:04.443Z,12740
2016-05-22T12:24:04.508Z,22944
2016-05-22T12:25:04.542Z,49088
2016-05-22T12:26:04.436Z,21760
2016-05-22T12:27:04.641Z,28928
2016-05-22T12:28:04.799Z,38400
2016-05-22T12:29:04.959Z,38112
2016-05-22T12:30:04.774Z,35744
2016-05-22T12:31:04.823Z,31264
2016-05-22T12:32:04.873Z,26656
2016-05-22T12:33:04.610Z,27616
2016-05-22T12:34:04.972Z,30496
2016-05-22T12:35:05.021Z,29632
2016-05-22T12:36:05.069Z,25280
2016-05-22T12:37:05.124Z,25280
2016-05-22T12:38:05.053Z,19680
2016-05-22T12:39:05.263Z,18880
2016-05-22T12:40:05.175Z,28032
2016-05-22T12:41:05.252Z,26976
2016-05-22T12:42:05.449Z,30944
2016-05-22T12:43:05.506Z,36032
2016-05-22T12:44:05.640Z,31072
2016-05-22T12:45:05.635Z,29248
2016-05-22T12:46:05.656Z,27872
2016-05-22T12:47:05.709Z,26368
2016-05-22T12:48:05.620Z,19360
2016-05-22T12:49:05.814Z,16000
2016-05-22T12:50:05.849Z,14440
2016-05-22T12:51:05.901Z,13856
2016-05-22T12:52:05.935Z,14068
2016-05-22T12:53:06.002Z,14748
2016-05-22T12:54:06.036Z,14144
2016-05-22T12:55:05.931Z,13528
2016-05-22T12:56:06.121Z,12520
2016-05-22T12:57:06.171Z,11996
2016-05-22T12:58:06.471Z,11672
2016-05-22T12:59:06.286Z,11272
2016-05-22T13:00:06.322Z,11292
2016-05-22T13:01:06.417Z,11424
2016-05-22T13:02:06.420Z,11852
2016-05-22T13:03:06.330Z,12328
2016-05-22T13:04:06.490Z,12752
2016-05-22T13:05:06.539Z,14220
2016-05-22T13:06:06.590Z,16608
2016-05-22T13:07:06.482Z,19616
2016-05-22T13:08:06.673Z,16672
2016-05-22T13:09:06.551Z,14748
2016-05-22T13:10:06.756Z,15424
2016-05-22T13:11:06.648Z,17056
2016-05-22T13:12:06.855Z,16064
2016-05-22T13:13:06.920Z,19040
2016-05-22T13:14:06.861Z,18848
2016-05-22T13:15:06.989Z,15744
2016-05-22T13:16:07.037Z,15552
2016-05-22T13:17:08.259Z,14868
2016-05-22T13:18:06.965Z,16000
2016-05-22T13:19:07.170Z,16096
2016-05-22T13:20:07.220Z,13268
2016-05-22T13:21:07.270Z,12224
2016-05-22T13:22:07.288Z,11440
2016-05-22T13:23:07.181Z,11580
2016-05-22T13:24:07.403Z,10740
2016-05-22T13:25:07.531Z,10892
2016-05-22T13:26:07.471Z,12212
2016-05-22T13:27:07.535Z,11852
2016-05-22T13:28:08.695Z,10580